sensor_id;sensor_type;location;lat;lon;timestamp;temperature;humidity
67186;HTU21D;54116;53.518;49.398;2023-09-12T00:00:22;-6.85;118.99
67186;HTU21D;54116;53.518;49.398;2023-09-12T00:02:49;-6.83;118.99
67186;HTU21D;54116;53.518;49.398;2023-09-12T00:05:15;-6.77;118.99
67186;HTU21D;54116;53.518;49.398;2023-09-12T00:07:41;-6.88;118.99
67186;HTU21D;54116;53.518;49.398;2023-09-12T00:10:07;-6.86;118.99
67186;HTU21D;54116;53.518;49.398;2023-09-12T00:12:33;-6.83;118.99
67186;HTU21D;54116;53.518;49.398;2023-09-12T00:14:59;-6.82;118.99
67186;HTU21D;54116;53.518;49.398;2023-09-12T00:17:25;-6.82;118.99
67186;HTU21D;54116;53.518;49.398;2023-09-12T00:19:52;-6.72;118.99
67186;HTU21D;54116;53.518;49.398;2023-09-12T00:22:18;-6.75;118.99
67186;HTU21D;54116;53.518;49.398;2023-09-12T00:24:44;-6.78;118.99
67186;HTU21D;54116;53.518;49.398;2023-09-12T00:27:10;-6.79;118.99
67186;HTU21D;54116;53.518;49.398;2023-09-12T00:29:37;-6.72;118.99
67186;HTU21D;54116;53.518;49.398;2023-09-12T00:32:03;-6.91;118.99
67186;HTU21D;54116;53.518;49.398;2023-09-12T00:34:30;-6.81;118.99
67186;HTU21D;54116;53.518;49.398;2023-09-12T00:36:56;-6.92;118.99
67186;HTU21D;54116;53.518;49.398;2023-09-12T00:39:22;-6.94;118.99
67186;HTU21D;54116;53.518;49.398;2023-09-12T00:41:48;-6.92;118.99
67186;HTU21D;54116;53.518;49.398;2023-09-12T00:44:15;-6.94;118.99
67186;HTU21D;54116;53.518;49.398;2023-09-12T00:46:41;-6.91;118.99
67186;HTU21D;54116;53.518;49.398;2023-09-12T00:49:10;-6.92;118.99
67186;HTU21D;54116;53.518;49.398;2023-09-12T00:51:37;-6.98;118.99
67186;HTU21D;54116;53.518;49.398;2023-09-12T00:54:04;-6.96;118.99
67186;HTU21D;54116;53.518;49.398;2023-09-12T00:56:31;-7.01;118.99
67186;HTU21D;54116;53.518;49.398;2023-09-12T00:58:58;-7.02;118.99
67186;HTU21D;54116;53.518;49.398;2023-09-12T01:01:24;-7.06;118.99
67186;HTU21D;54116;53.518;49.398;2023-09-12T01:03:51;-7.05;118.99
67186;HTU21D;54116;53.518;49.398;2023-09-12T01:06:19;-7.08;118.99
67186;HTU21D;54116;53.518;49.398;2023-09-12T01:08:47;-7.07;118.99
67186;HTU21D;54116;53.518;49.398;2023-09-12T01:11:14;-7.02;118.99
67186;HTU21D;54116;53.518;49.398;2023-09-12T01:13:40;-7.05;118.99
67186;HTU21D;54116;53.518;49.398;2023-09-12T01:16:06;-7.06;118.99
67186;HTU21D;54116;53.518;49.398;2023-09-12T01:18:33;-7.04;118.99
67186;HTU21D;54116;53.518;49.398;2023-09-12T01:21:14;-7.09;118.99
67186;HTU21D;54116;53.518;49.398;2023-09-12T01:26:37;-7.06;118.99
67186;HTU21D;54116;53.518;49.398;2023-09-12T01:29:07;-7.09;118.99
67186;HTU21D;54116;53.518;49.398;2023-09-12T01:31:37;-6.92;118.99
67186;HTU21D;54116;53.518;49.398;2023-09-12T01:34:10;-6.96;118.99
67186;HTU21D;54116;53.518;49.398;2023-09-12T01:36:37;-6.97;118.99
67186;HTU21D;54116;53.518;49.398;2023-09-12T01:39:04;-7.01;118.99
67186;HTU21D;54116;53.518;49.398;2023-09-12T01:41:32;-6.93;118.99
67186;HTU21D;54116;53.518;49.398;2023-09-12T01:44:02;-6.98;118.99
67186;HTU21D;54116;53.518;49.398;2023-09-12T01:46:29;-7.00;118.99
67186;HTU21D;54116;53.518;49.398;2023-09-12T01:48:58;-6.96;118.99
67186;HTU21D;54116;53.518;49.398;2023-09-12T01:51:25;-6.98;118.99
67186;HTU21D;54116;53.518;49.398;2023-09-12T01:53:53;-6.96;118.99
67186;HTU21D;54116;53.518;49.398;2023-09-12T01:56:21;-6.94;118.99
67186;HTU21D;54116;53.518;49.398;2023-09-12T01:58:48;-7.01;118.99
67186;HTU21D;54116;53.518;49.398;2023-09-12T02:01:14;-6.96;118.99
67186;HTU21D;54116;53.518;49.398;2023-09-12T02:03:40;-6.93;118.99
67186;HTU21D;54116;53.518;49.398;2023-09-12T02:06:07;-6.95;118.99
67186;HTU21D;54116;53.518;49.398;2023-09-12T02:08:33;-6.96;118.99
67186;HTU21D;54116;53.518;49.398;2023-09-12T02:10:59;-6.93;118.99
67186;HTU21D;54116;53.518;49.398;2023-09-12T02:13:26;-6.92;118.99
67186;HTU21D;54116;53.518;49.398;2023-09-12T02:15:59;-6.88;118.99
67186;HTU21D;54116;53.518;49.398;2023-09-12T02:18:25;-6.78;118.99
67186;HTU21D;54116;53.518;49.398;2023-09-12T02:20:51;-6.77;118.99
67186;HTU21D;54116;53.518;49.398;2023-09-12T02:23:18;-6.78;118.99
67186;HTU21D;54116;53.518;49.398;2023-09-12T02:25:44;-6.75;118.99
67186;HTU21D;54116;53.518;49.398;2023-09-12T02:28:10;-6.74;118.99
67186;HTU21D;54116;53.518;49.398;2023-09-12T02:30:39;-6.74;118.99
67186;HTU21D;54116;53.518;49.398;2023-09-12T02:33:09;-6.75;118.99
67186;HTU21D;54116;53.518;49.398;2023-09-12T02:35:35;-6.70;118.99
67186;HTU21D;54116;53.518;49.398;2023-09-12T02:38:05;-6.73;118.99
67186;HTU21D;54116;53.518;49.398;2023-09-12T02:40:31;-6.75;118.99
67186;HTU21D;54116;53.518;49.398;2023-09-12T02:42:58;-6.75;118.99
67186;HTU21D;54116;53.518;49.398;2023-09-12T02:45:24;-6.63;118.99
67186;HTU21D;54116;53.518;49.398;2023-09-12T02:47:50;-6.61;118.99
67186;HTU21D;54116;53.518;49.398;2023-09-12T02:50:16;-6.58;118.99
67186;HTU21D;54116;53.518;49.398;2023-09-12T02:52:43;-6.59;118.99
67186;HTU21D;54116;53.518;49.398;2023-09-12T02:55:09;-6.63;118.99
67186;HTU21D;54116;53.518;49.398;2023-09-12T02:57:36;-6.55;118.99
67186;HTU21D;54116;53.518;49.398;2023-09-12T03:00:03;-6.53;118.99
67186;HTU21D;54116;53.518;49.398;2023-09-12T03:02:33;-6.46;118.99
67186;HTU21D;54116;53.518;49.398;2023-09-12T03:05:00;-6.49;118.99
67186;HTU21D;54116;53.518;49.398;2023-09-12T03:07:29;-6.42;118.99
67186;HTU21D;54116;53.518;49.398;2023-09-12T03:09:55;-6.48;118.99
67186;HTU21D;54116;53.518;49.398;2023-09-12T03:12:21;-6.37;118.99
67186;HTU21D;54116;53.518;49.398;2023-09-12T03:14:48;-6.43;118.99
67186;HTU21D;54116;53.518;49.398;2023-09-12T03:17:14;-6.39;118.99
67186;HTU21D;54116;53.518;49.398;2023-09-12T03:19:40;-6.41;118.99
67186;HTU21D;54116;53.518;49.398;2023-09-12T03:22:06;-6.29;118.99
67186;HTU21D;54116;53.518;49.398;2023-09-12T03:24:33;-6.41;118.99
67186;HTU21D;54116;53.518;49.398;2023-09-12T03:26:59;-6.42;118.99
67186;HTU21D;54116;53.518;49.398;2023-09-12T03:29:25;-6.41;118.99
67186;HTU21D;54116;53.518;49.398;2023-09-12T03:31:51;-6.38;118.99
67186;HTU21D;54116;53.518;49.398;2023-09-12T03:34:17;-6.29;118.99
67186;HTU21D;54116;53.518;49.398;2023-09-12T03:36:43;-6.29;118.99
67186;HTU21D;54116;53.518;49.398;2023-09-12T03:39:09;-6.30;118.99
67186;HTU21D;54116;53.518;49.398;2023-09-12T03:41:39;-6.23;118.99
67186;HTU21D;54116;53.518;49.398;2023-09-12T03:44:05;-6.15;118.99
67186;HTU21D;54116;53.518;49.398;2023-09-12T03:46:31;-6.13;118.99
67186;HTU21D;54116;53.518;49.398;2023-09-12T03:48:57;-6.04;118.99
67186;HTU21D;54116;53.518;49.398;2023-09-12T03:51:23;-5.98;118.99
67186;HTU21D;54116;53.518;49.398;2023-09-12T03:53:49;-5.97;118.99
67186;HTU21D;54116;53.518;49.398;2023-09-12T03:56:16;-5.93;118.99
67186;HTU21D;54116;53.518;49.398;2023-09-12T03:58:45;-5.77;118.99
67186;HTU21D;54116;53.518;49.398;2023-09-12T04:01:11;-5.87;118.99
67186;HTU21D;54116;53.518;49.398;2023-09-12T04:03:38;-5.88;118.99
67186;HTU21D;54116;53.518;49.398;2023-09-12T04:06:04;-5.89;118.99
67186;HTU21D;54116;53.518;49.398;2023-09-12T04:08:30;-5.83;118.99
67186;HTU21D;54116;53.518;49.398;2023-09-12T04:10:58;-5.69;118.99
67186;HTU21D;54116;53.518;49.398;2023-09-12T04:13:24;-5.65;118.99
67186;HTU21D;54116;53.518;49.398;2023-09-12T04:15:50;-5.67;118.99
67186;HTU21D;54116;53.518;49.398;2023-09-12T04:18:16;-5.48;118.99
67186;HTU21D;54116;53.518;49.398;2023-09-12T04:20:42;-5.28;118.99
67186;HTU21D;54116;53.518;49.398;2023-09-12T04:23:08;-4.87;118.99
67186;HTU21D;54116;53.518;49.398;2023-09-12T04:25:34;-4.55;118.99
67186;HTU21D;54116;53.518;49.398;2023-09-12T04:28:00;-4.16;118.99
67186;HTU21D;54116;53.518;49.398;2023-09-12T04:30:26;-4.09;118.99
67186;HTU21D;54116;53.518;49.398;2023-09-12T04:32:52;-4.37;118.99
67186;HTU21D;54116;53.518;49.398;2023-09-12T04:35:18;-4.58;118.99
67186;HTU21D;54116;53.518;49.398;2023-09-12T04:37:47;-4.79;118.99
67186;HTU21D;54116;53.518;49.398;2023-09-12T04:40:13;-4.90;118.99
67186;HTU21D;54116;53.518;49.398;2023-09-12T04:42:39;-4.99;118.99
67186;HTU21D;54116;53.518;49.398;2023-09-12T04:45:05;-5.13;118.99
67186;HTU21D;54116;53.518;49.398;2023-09-12T04:47:32;-5.19;118.99
67186;HTU21D;54116;53.518;49.398;2023-09-12T04:49:58;-5.28;118.99
67186;HTU21D;54116;53.518;49.398;2023-09-12T04:52:24;-5.27;118.99
67186;HTU21D;54116;53.518;49.398;2023-09-12T04:54:50;-5.22;118.99
67186;HTU21D;54116;53.518;49.398;2023-09-12T04:57:16;-4.88;118.99
67186;HTU21D;54116;53.518;49.398;2023-09-12T04:59:42;-4.81;118.99
67186;HTU21D;54116;53.518;49.398;2023-09-12T05:02:08;-4.88;118.99
67186;HTU21D;54116;53.518;49.398;2023-09-12T05:04:34;-4.84;118.99
67186;HTU21D;54116;53.518;49.398;2023-09-12T05:07:00;-4.91;118.99
67186;HTU21D;54116;53.518;49.398;2023-09-12T05:09:26;-4.88;118.99
67186;HTU21D;54116;53.518;49.398;2023-09-12T05:11:52;-4.94;118.99
67186;HTU21D;54116;53.518;49.398;2023-09-12T05:14:18;-4.90;118.99
67186;HTU21D;54116;53.518;49.398;2023-09-12T05:16:45;-4.88;118.99
67186;HTU21D;54116;53.518;49.398;2023-09-12T05:19:11;-4.79;118.99
67186;HTU21D;54116;53.518;49.398;2023-09-12T05:21:37;-4.73;118.99
67186;HTU21D;54116;53.518;49.398;2023-09-12T05:24:04;-4.50;118.99
67186;HTU21D;54116;53.518;49.398;2023-09-12T05:26:30;-4.05;118.99
67186;HTU21D;54116;53.518;49.398;2023-09-12T05:28:57;-3.60;118.99
67186;HTU21D;54116;53.518;49.398;2023-09-12T05:31:23;-3.46;118.99
67186;HTU21D;54116;53.518;49.398;2023-09-12T05:33:49;-3.50;118.99
67186;HTU21D;54116;53.518;49.398;2023-09-12T05:36:16;-3.68;118.99
67186;HTU21D;54116;53.518;49.398;2023-09-12T05:38:42;-3.72;118.99
67186;HTU21D;54116;53.518;49.398;2023-09-12T05:41:09;-3.94;118.99
67186;HTU21D;54116;53.518;49.398;2023-09-12T05:43:36;-3.95;118.99
67186;HTU21D;54116;53.518;49.398;2023-09-12T05:46:02;-4.10;118.99
67186;HTU21D;54116;53.518;49.398;2023-09-12T05:48:28;-4.21;118.99
67186;HTU21D;54116;53.518;49.398;2023-09-12T05:50:54;-4.29;118.99
67186;HTU21D;54116;53.518;49.398;2023-09-12T05:53:21;-4.30;118.99
67186;HTU21D;54116;53.518;49.398;2023-09-12T05:55:47;-4.24;118.99
67186;HTU21D;54116;53.518;49.398;2023-09-12T05:58:13;-4.24;118.99
67186;HTU21D;54116;53.518;49.398;2023-09-12T06:00:40;-4.20;118.99
67186;HTU21D;54116;53.518;49.398;2023-09-12T06:03:06;-4.16;118.99
67186;HTU21D;54116;53.518;49.398;2023-09-12T06:05:33;-4.07;118.99
67186;HTU21D;54116;53.518;49.398;2023-09-12T06:07:59;-3.92;118.99
67186;HTU21D;54116;53.518;49.398;2023-09-12T06:10:26;-3.74;118.99
67186;HTU21D;54116;53.518;49.398;2023-09-12T06:12:52;-3.78;118.99
67186;HTU21D;54116;53.518;49.398;2023-09-12T06:15:18;-3.82;118.99
67186;HTU21D;54116;53.518;49.398;2023-09-12T06:17:45;-3.65;118.99
67186;HTU21D;54116;53.518;49.398;2023-09-12T06:20:11;-3.77;118.99
67186;HTU21D;54116;53.518;49.398;2023-09-12T06:22:37;-3.72;118.99
67186;HTU21D;54116;53.518;49.398;2023-09-12T06:25:04;-3.60;118.99
67186;HTU21D;54116;53.518;49.398;2023-09-12T06:27:30;-3.49;118.99
67186;HTU21D;54116;53.518;49.398;2023-09-12T06:29:57;-3.35;118.99
67186;HTU21D;54116;53.518;49.398;2023-09-12T06:32:23;-3.32;118.99
67186;HTU21D;54116;53.518;49.398;2023-09-12T06:34:49;-3.41;118.99
67186;HTU21D;54116;53.518;49.398;2023-09-12T06:37:15;-3.55;118.99
67186;HTU21D;54116;53.518;49.398;2023-09-12T06:39:41;-3.65;118.99
67186;HTU21D;54116;53.518;49.398;2023-09-12T06:42:08;-3.69;118.99
67186;HTU21D;54116;53.518;49.398;2023-09-12T06:44:34;-3.74;118.99
67186;HTU21D;54116;53.518;49.398;2023-09-12T06:47:00;-3.65;118.99
67186;HTU21D;54116;53.518;49.398;2023-09-12T06:49:26;-3.41;118.99
67186;HTU21D;54116;53.518;49.398;2023-09-12T06:51:52;-3.41;118.99
67186;HTU21D;54116;53.518;49.398;2023-09-12T06:54:18;-3.51;118.99
67186;HTU21D;54116;53.518;49.398;2023-09-12T06:56:44;-3.48;118.99
67186;HTU21D;54116;53.518;49.398;2023-09-12T06:59:10;-3.43;118.99
67186;HTU21D;54116;53.518;49.398;2023-09-12T07:01:37;-3.38;118.99
67186;HTU21D;54116;53.518;49.398;2023-09-12T07:04:03;-3.54;118.99
67186;HTU21D;54116;53.518;49.398;2023-09-12T07:06:29;-3.51;118.99
67186;HTU21D;54116;53.518;49.398;2023-09-12T07:08:55;-3.35;118.99
67186;HTU21D;54116;53.518;49.398;2023-09-12T07:11:21;-3.32;118.99
67186;HTU21D;54116;53.518;49.398;2023-09-12T07:13:49;-3.28;118.99
67186;HTU21D;54116;53.518;49.398;2023-09-12T07:16:15;-3.24;118.99
67186;HTU21D;54116;53.518;49.398;2023-09-12T07:18:42;-3.16;118.99
67186;HTU21D;54116;53.518;49.398;2023-09-12T07:21:08;-3.10;118.99
67186;HTU21D;54116;53.518;49.398;2023-09-12T07:23:36;-3.27;118.99
67186;HTU21D;54116;53.518;49.398;2023-09-12T07:26:02;-3.36;118.99
67186;HTU21D;54116;53.518;49.398;2023-09-12T07:28:30;-3.38;118.99
67186;HTU21D;54116;53.518;49.398;2023-09-12T07:30:57;-3.26;118.99
67186;HTU21D;54116;53.518;49.398;2023-09-12T07:33:23;-3.32;118.99
67186;HTU21D;54116;53.518;49.398;2023-09-12T07:35:53;-3.25;118.99
67186;HTU21D;54116;53.518;49.398;2023-09-12T07:38:22;-3.11;118.99
67186;HTU21D;54116;53.518;49.398;2023-09-12T07:40:48;-3.37;118.99
67186;HTU21D;54116;53.518;49.398;2023-09-12T07:43:15;-3.33;118.99
67186;HTU21D;54116;53.518;49.398;2023-09-12T07:45:41;-3.32;118.99
67186;HTU21D;54116;53.518;49.398;2023-09-12T07:48:09;-3.23;118.99
67186;HTU21D;54116;53.518;49.398;2023-09-12T07:50:38;-3.27;118.99
67186;HTU21D;54116;53.518;49.398;2023-09-12T07:53:05;-3.32;118.99
67186;HTU21D;54116;53.518;49.398;2023-09-12T07:55:32;-3.34;118.99
67186;HTU21D;54116;53.518;49.398;2023-09-12T07:58:02;-3.27;118.99
67186;HTU21D;54116;53.518;49.398;2023-09-12T08:00:29;-3.37;118.99
67186;HTU21D;54116;53.518;49.398;2023-09-12T08:02:55;-3.33;118.99
67186;HTU21D;54116;53.518;49.398;2023-09-12T08:05:21;-3.21;118.99
67186;HTU21D;54116;53.518;49.398;2023-09-12T08:07:48;-3.20;118.99
67186;HTU21D;54116;53.518;49.398;2023-09-12T08:10:14;-3.22;118.99
67186;HTU21D;54116;53.518;49.398;2023-09-12T08:12:41;-3.21;118.99
67186;HTU21D;54116;53.518;49.398;2023-09-12T08:15:08;-3.18;118.99
67186;HTU21D;54116;53.518;49.398;2023-09-12T08:17:34;-3.20;118.99
67186;HTU21D;54116;53.518;49.398;2023-09-12T08:20:00;-3.30;118.99
67186;HTU21D;54116;53.518;49.398;2023-09-12T08:22:27;-3.34;118.99
67186;HTU21D;54116;53.518;49.398;2023-09-12T08:24:53;-3.43;118.99
67186;HTU21D;54116;53.518;49.398;2023-09-12T08:27:20;-3.55;118.99
67186;HTU21D;54116;53.518;49.398;2023-09-12T08:29:47;-3.70;118.99
67186;HTU21D;54116;53.518;49.398;2023-09-12T08:32:14;-3.77;118.99
67186;HTU21D;54116;53.518;49.398;2023-09-12T08:34:40;-3.76;118.99
67186;HTU21D;54116;53.518;49.398;2023-09-12T08:37:07;-3.67;118.99
67186;HTU21D;54116;53.518;49.398;2023-09-12T08:39:44;-3.66;118.99
67186;HTU21D;54116;53.518;49.398;2023-09-12T08:42:16;-3.64;118.99
67186;HTU21D;54116;53.518;49.398;2023-09-12T08:44:42;-3.47;118.99
67186;HTU21D;54116;53.518;49.398;2023-09-12T08:47:09;-3.46;118.99
67186;HTU21D;54116;53.518;49.398;2023-09-12T08:49:37;-3.42;118.99
67186;HTU21D;54116;53.518;49.398;2023-09-12T08:52:06;-3.46;118.99
67186;HTU21D;54116;53.518;49.398;2023-09-12T08:54:33;-3.49;118.99
67186;HTU21D;54116;53.518;49.398;2023-09-12T08:57:05;-3.40;118.99
67186;HTU21D;54116;53.518;49.398;2023-09-12T08:59:31;-3.35;118.99
67186;HTU21D;54116;53.518;49.398;2023-09-12T09:02:00;-3.25;118.99
67186;HTU21D;54116;53.518;49.398;2023-09-12T09:04:30;-3.24;118.99
67186;HTU21D;54116;53.518;49.398;2023-09-12T09:06:59;-3.17;118.99
67186;HTU21D;54116;53.518;49.398;2023-09-12T09:09:26;-3.26;118.99
67186;HTU21D;54116;53.518;49.398;2023-09-12T09:11:56;-3.19;118.99
67186;HTU21D;54116;53.518;49.398;2023-09-12T09:14:23;-3.16;118.99
67186;HTU21D;54116;53.518;49.398;2023-09-12T09:16:50;-3.24;118.99
67186;HTU21D;54116;53.518;49.398;2023-09-12T09:19:16;-3.34;118.99
67186;HTU21D;54116;53.518;49.398;2023-09-12T09:21:44;-3.37;118.99
67186;HTU21D;54116;53.518;49.398;2023-09-12T09:24:12;-3.36;118.99
67186;HTU21D;54116;53.518;49.398;2023-09-12T09:26:43;-3.24;118.99
67186;HTU21D;54116;53.518;49.398;2023-09-12T09:29:13;-3.20;118.99
67186;HTU21D;54116;53.518;49.398;2023-09-12T09:31:44;-3.11;118.99
67186;HTU21D;54116;53.518;49.398;2023-09-12T09:34:13;-3.23;118.99
67186;HTU21D;54116;53.518;49.398;2023-09-12T09:36:47;-3.49;118.99
67186;HTU21D;54116;53.518;49.398;2023-09-12T09:39:14;-3.54;118.99
67186;HTU21D;54116;53.518;49.398;2023-09-12T09:41:41;-3.36;118.99
67186;HTU21D;54116;53.518;49.398;2023-09-12T09:44:08;-3.41;118.99
67186;HTU21D;54116;53.518;49.398;2023-09-12T09:46:36;-3.54;118.99
67186;HTU21D;54116;53.518;49.398;2023-09-12T09:49:03;-3.60;118.99
67186;HTU21D;54116;53.518;49.398;2023-09-12T09:51:32;-3.42;118.99
67186;HTU21D;54116;53.518;49.398;2023-09-12T09:53:58;-3.41;118.99
67186;HTU21D;54116;53.518;49.398;2023-09-12T09:56:26;-3.58;118.99
67186;HTU21D;54116;53.518;49.398;2023-09-12T09:58:56;-3.62;118.99
67186;HTU21D;54116;53.518;49.398;2023-09-12T10:01:31;-3.60;118.99
67186;HTU21D;54116;53.518;49.398;2023-09-12T10:04:00;-3.45;118.99
67186;HTU21D;54116;53.518;49.398;2023-09-12T10:06:28;-3.57;118.99
67186;HTU21D;54116;53.518;49.398;2023-09-12T10:08:55;-3.65;118.99
67186;HTU21D;54116;53.518;49.398;2023-09-12T10:11:28;-3.64;118.99
67186;HTU21D;54116;53.518;49.398;2023-09-12T10:13:57;-3.50;118.99
67186;HTU21D;54116;53.518;49.398;2023-09-12T10:16:28;-3.37;118.99
67186;HTU21D;54116;53.518;49.398;2023-09-12T10:19:23;-3.16;118.99
67186;HTU21D;54116;53.518;49.398;2023-09-12T10:22:03;-3.21;118.99
67186;HTU21D;54116;53.518;49.398;2023-09-12T10:24:33;-3.30;118.99
67186;HTU21D;54116;53.518;49.398;2023-09-12T10:27:02;-3.25;118.99
67186;HTU21D;54116;53.518;49.398;2023-09-12T10:29:28;-3.27;118.99
67186;HTU21D;54116;53.518;49.398;2023-09-12T10:31:56;-3.32;118.99
67186;HTU21D;54116;53.518;49.398;2023-09-12T10:34:25;-3.30;118.99
67186;HTU21D;54116;53.518;49.398;2023-09-12T10:36:52;-3.37;118.99
67186;HTU21D;54116;53.518;49.398;2023-09-12T10:39:21;-3.25;118.99
67186;HTU21D;54116;53.518;49.398;2023-09-12T10:41:49;-3.23;118.99
67186;HTU21D;54116;53.518;49.398;2023-09-12T10:44:17;-3.32;118.99
67186;HTU21D;54116;53.518;49.398;2023-09-12T10:46:45;-3.23;118.99
67186;HTU21D;54116;53.518;49.398;2023-09-12T10:49:14;-3.19;118.99
67186;HTU21D;54116;53.518;49.398;2023-09-12T10:51:45;-3.31;118.99
67186;HTU21D;54116;53.518;49.398;2023-09-12T10:54:38;-3.18;118.99
67186;HTU21D;54116;53.518;49.398;2023-09-12T10:57:05;-3.24;118.99
67186;HTU21D;54116;53.518;49.398;2023-09-12T10:59:32;-3.36;118.99
67186;HTU21D;54116;53.518;49.398;2023-09-12T11:02:27;-3.40;118.99
67186;HTU21D;54116;53.518;49.398;2023-09-12T11:04:54;-3.36;118.99
67186;HTU21D;54116;53.518;49.398;2023-09-12T11:07:49;-3.35;118.99
67186;HTU21D;54116;53.518;49.398;2023-09-12T11:10:17;-3.33;118.99
67186;HTU21D;54116;53.518;49.398;2023-09-12T11:12:56;-3.32;118.99
67186;HTU21D;54116;53.518;49.398;2023-09-12T11:15:26;-3.40;118.99
67186;HTU21D;54116;53.518;49.398;2023-09-12T11:18:04;-3.48;118.99
67186;HTU21D;54116;53.518;49.398;2023-09-12T11:21:03;-3.35;118.99
67186;HTU21D;54116;53.518;49.398;2023-09-12T11:23:29;-3.16;118.99
67186;HTU21D;54116;53.518;49.398;2023-09-12T11:26:07;-3.13;118.99
67186;HTU21D;54116;53.518;49.398;2023-09-12T11:28:36;-3.03;118.99
67186;HTU21D;54116;53.518;49.398;2023-09-12T11:31:02;-3.08;118.99
67186;HTU21D;54116;53.518;49.398;2023-09-12T11:33:33;-3.06;118.99
67186;HTU21D;54116;53.518;49.398;2023-09-12T11:36:00;-3.13;118.99
67186;HTU21D;54116;53.518;49.398;2023-09-12T11:38:30;-3.12;118.99
67186;HTU21D;54116;53.518;49.398;2023-09-12T11:40:58;-3.15;118.99
67186;HTU21D;54116;53.518;49.398;2023-09-12T11:43:25;-3.05;118.99
67186;HTU21D;54116;53.518;49.398;2023-09-12T11:45:52;-2.69;118.99
67186;HTU21D;54116;53.518;49.398;2023-09-12T11:48:19;-2.61;118.99
67186;HTU21D;54116;53.518;49.398;2023-09-12T11:50:53;-2.73;118.99
67186;HTU21D;54116;53.518;49.398;2023-09-12T11:53:25;-2.96;118.99
67186;HTU21D;54116;53.518;49.398;2023-09-12T11:55:57;-3.01;118.99
67186;HTU21D;54116;53.518;49.398;2023-09-12T11:58:25;-2.94;118.99
67186;HTU21D;54116;53.518;49.398;2023-09-12T12:00:55;-2.98;118.99
67186;HTU21D;54116;53.518;49.398;2023-09-12T12:03:24;-3.02;118.99
67186;HTU21D;54116;53.518;49.398;2023-09-12T12:05:51;-3.08;118.99
67186;HTU21D;54116;53.518;49.398;2023-09-12T12:08:18;-3.25;118.99
67186;HTU21D;54116;53.518;49.398;2023-09-12T12:10:49;-3.42;118.99
67186;HTU21D;54116;53.518;49.398;2023-09-12T12:13:17;-3.49;118.99
67186;HTU21D;54116;53.518;49.398;2023-09-12T12:15:43;-3.57;118.99
67186;HTU21D;54116;53.518;49.398;2023-09-12T12:18:09;-3.42;118.99
67186;HTU21D;54116;53.518;49.398;2023-09-12T12:20:36;-3.07;118.99
67186;HTU21D;54116;53.518;49.398;2023-09-12T12:23:02;-2.73;118.99
67186;HTU21D;54116;53.518;49.398;2023-09-12T12:25:32;-2.48;118.99
67186;HTU21D;54116;53.518;49.398;2023-09-12T12:28:00;-2.22;118.99
67186;HTU21D;54116;53.518;49.398;2023-09-12T12:30:30;-2.16;118.99
67186;HTU21D;54116;53.518;49.398;2023-09-12T12:32:57;-2.20;118.99
67186;HTU21D;54116;53.518;49.398;2023-09-12T12:35:23;-2.50;118.99
67186;HTU21D;54116;53.518;49.398;2023-09-12T12:37:51;-2.74;118.99
67186;HTU21D;54116;53.518;49.398;2023-09-12T12:40:18;-2.88;118.99
67186;HTU21D;54116;53.518;49.398;2023-09-12T12:42:45;-2.91;118.99
67186;HTU21D;54116;53.518;49.398;2023-09-12T12:45:17;-2.83;118.99
67186;HTU21D;54116;53.518;49.398;2023-09-12T12:47:44;-2.77;118.99
67186;HTU21D;54116;53.518;49.398;2023-09-12T12:50:15;-2.79;118.99
67186;HTU21D;54116;53.518;49.398;2023-09-12T12:52:42;-3.01;118.99
67186;HTU21D;54116;53.518;49.398;2023-09-12T12:55:12;-3.05;118.99
67186;HTU21D;54116;53.518;49.398;2023-09-12T12:57:41;-2.88;118.99
67186;HTU21D;54116;53.518;49.398;2023-09-12T13:00:14;-2.75;118.99
67186;HTU21D;54116;53.518;49.398;2023-09-12T13:02:41;-2.79;118.99
67186;HTU21D;54116;53.518;49.398;2023-09-12T13:05:28;-2.73;118.99
67186;HTU21D;54116;53.518;49.398;2023-09-12T13:07:54;-2.63;118.99
67186;HTU21D;54116;53.518;49.398;2023-09-12T13:10:22;-2.64;118.99
67186;HTU21D;54116;53.518;49.398;2023-09-12T13:12:50;-2.73;118.99
67186;HTU21D;54116;53.518;49.398;2023-09-12T13:15:16;-2.58;118.99
67186;HTU21D;54116;53.518;49.398;2023-09-12T13:17:44;-2.63;118.99
67186;HTU21D;54116;53.518;49.398;2023-09-12T13:20:11;-2.71;118.99
67186;HTU21D;54116;53.518;49.398;2023-09-12T13:22:38;-2.79;118.99
67186;HTU21D;54116;53.518;49.398;2023-09-12T13:25:05;-2.86;118.99
67186;HTU21D;54116;53.518;49.398;2023-09-12T13:27:32;-2.90;118.99
67186;HTU21D;54116;53.518;49.398;2023-09-12T13:29:59;-2.82;118.99
67186;HTU21D;54116;53.518;49.398;2023-09-12T13:32:25;-2.64;118.99
67186;HTU21D;54116;53.518;49.398;2023-09-12T13:34:52;-2.65;118.99
67186;HTU21D;54116;53.518;49.398;2023-09-12T13:37:19;-2.61;118.99
67186;HTU21D;54116;53.518;49.398;2023-09-12T13:39:45;-2.63;118.99
67186;HTU21D;54116;53.518;49.398;2023-09-12T13:42:17;-2.67;118.99
67186;HTU21D;54116;53.518;49.398;2023-09-12T13:44:47;-2.74;118.99
67186;HTU21D;54116;53.518;49.398;2023-09-12T13:47:14;-2.83;118.99
67186;HTU21D;54116;53.518;49.398;2023-09-12T13:49:47;-3.04;118.99
67186;HTU21D;54116;53.518;49.398;2023-09-12T13:52:14;-3.17;118.99
67186;HTU21D;54116;53.518;49.398;2023-09-12T13:54:43;-3.23;118.99
67186;HTU21D;54116;53.518;49.398;2023-09-12T13:57:09;-3.24;118.99
67186;HTU21D;54116;53.518;49.398;2023-09-12T13:59:36;-3.22;118.99
67186;HTU21D;54116;53.518;49.398;2023-09-12T14:02:02;-3.30;118.99
67186;HTU21D;54116;53.518;49.398;2023-09-12T14:04:29;-3.32;118.99
67186;HTU21D;54116;53.518;49.398;2023-09-12T14:06:55;-3.30;118.99
67186;HTU21D;54116;53.518;49.398;2023-09-12T14:09:21;-3.18;118.99
67186;HTU21D;54116;53.518;49.398;2023-09-12T14:11:48;-3.22;118.99
67186;HTU21D;54116;53.518;49.398;2023-09-12T14:14:14;-3.36;118.99
67186;HTU21D;54116;53.518;49.398;2023-09-12T14:16:43;-3.42;118.99
67186;HTU21D;54116;53.518;49.398;2023-09-12T14:19:11;-3.38;118.99
67186;HTU21D;54116;53.518;49.398;2023-09-12T14:21:37;-3.27;118.99
67186;HTU21D;54116;53.518;49.398;2023-09-12T14:24:05;-3.39;118.99
67186;HTU21D;54116;53.518;49.398;2023-09-12T14:26:31;-3.27;118.99
67186;HTU21D;54116;53.518;49.398;2023-09-12T14:28:57;-3.38;118.99
67186;HTU21D;54116;53.518;49.398;2023-09-12T14:31:24;-3.50;118.99
67186;HTU21D;54116;53.518;49.398;2023-09-12T14:33:50;-3.57;118.99
67186;HTU21D;54116;53.518;49.398;2023-09-12T14:36:18;-3.58;118.99
67186;HTU21D;54116;53.518;49.398;2023-09-12T14:38:45;-3.69;118.99
67186;HTU21D;54116;53.518;49.398;2023-09-12T14:41:13;-3.70;118.99
67186;HTU21D;54116;53.518;49.398;2023-09-12T14:43:40;-3.77;118.99
67186;HTU21D;54116;53.518;49.398;2023-09-12T14:46:06;-3.81;118.99
67186;HTU21D;54116;53.518;49.398;2023-09-12T14:48:34;-3.82;118.99
67186;HTU21D;54116;53.518;49.398;2023-09-12T14:51:02;-3.81;118.99
67186;HTU21D;54116;53.518;49.398;2023-09-12T14:53:28;-3.82;118.99